RYR4BY EDDW-EGSS
Flight info
| Callsign | RYR4BY |
|---|---|
| Flight time | N/A |
| Altitude | 36000 |
| Route | OKWEL1L OKWEL N125 EKNON DCT NOGRO M40 RINIS RINIS1A |
| Aircraft | B738/M-SDE3FGIJ1LRWY/SB1 |
Departure
| Time | 2026-05-04 12:03 |
|---|---|
| Airport | Bremen Airport (EDDW) |
Arrival
| Time | N/A |
|---|---|
| Airport | London Stansted Airport (EGSS) |
| Time | Latitude | Longitude | Altitude | Speed | Heading |
|---|---|---|---|---|---|
| 2026-05-04 11:45 | 53.05235 | 8.78291 | 13 ft | 0 kts | 12° |
| 2026-05-04 11:52 | 53.05226 | 8.78288 | 13 ft | 2 kts | 12° |
| 2026-05-04 11:52 | 53.05212 | 8.78282 | 13 ft | 2 kts | 24° |
| 2026-05-04 11:52 | 53.05199 | 8.78268 | 13 ft | 2 kts | 44° |
| 2026-05-04 11:52 | 53.05190 | 8.78248 | 13 ft | 2 kts | 64° |
| 2026-05-04 11:53 | 53.05185 | 8.78225 | 13 ft | 2 kts | 83° |
| 2026-05-04 11:53 | 53.05185 | 8.78201 | 13 ft | 1 kts | 101° |
| 2026-05-04 11:53 | 53.05187 | 8.78191 | 13 ft | 1 kts | 106° |
| 2026-05-04 11:53 | 53.05187 | 8.78188 | 13 ft | 0 kts | 105° |
| 2026-05-04 11:55 | 53.05186 | 8.78193 | 13 ft | 3 kts | 105° |
| 2026-05-04 11:56 | 53.05172 | 8.78281 | 13 ft | 12 kts | 103° |
| 2026-05-04 11:56 | 53.05140 | 8.78402 | 13 ft | 11 kts | 119° |
| 2026-05-04 11:56 | 53.05090 | 8.78492 | 13 ft | 10 kts | 137° |
| 2026-05-04 11:56 | 53.05033 | 8.78569 | 13 ft | 10 kts | 138° |
| 2026-05-04 11:57 | 53.04978 | 8.78638 | 14 ft | 9 kts | 156° |
| 2026-05-04 11:57 | 53.04899 | 8.78662 | 14 ft | 12 kts | 161° |
| 2026-05-04 11:57 | 53.04855 | 8.78767 | 14 ft | 11 kts | 97° |
| 2026-05-04 11:57 | 53.04855 | 8.78887 | 14 ft | 9 kts | 90° |
| 2026-05-04 11:58 | 53.04855 | 8.78919 | 14 ft | 0 kts | 89° |
| 2026-05-04 11:59 | 53.04857 | 8.79019 | 14 ft | 18 kts | 89° |
| 2026-05-04 12:00 | 53.04863 | 8.79234 | 15 ft | 18 kts | 87° |
| 2026-05-04 12:00 | 53.04866 | 8.79439 | 15 ft | 17 kts | 89° |
| 2026-05-04 12:00 | 53.04871 | 8.79638 | 16 ft | 19 kts | 86° |
| 2026-05-04 12:00 | 53.04878 | 8.79877 | 16 ft | 20 kts | 87° |
| 2026-05-04 12:01 | 53.04883 | 8.80110 | 16 ft | 19 kts | 89° |
| 2026-05-04 12:01 | 53.04886 | 8.80302 | 16 ft | 0 kts | 88° |
| 2026-05-04 12:02 | 53.04721 | 8.80300 | 16 ft | 21 kts | 268° |
| 2026-05-04 12:03 | 53.04705 | 8.79536 | 16 ft | 108 kts | 268° |
| 2026-05-04 12:03 | 53.04668 | 8.77885 | 114 ft | 168 kts | 269° |
| 2026-05-04 12:03 | 53.04633 | 8.75964 | 977 ft | 170 kts | 263° |
| 2026-05-04 12:03 | 53.04533 | 8.74033 | 1787 ft | 174 kts | 268° |
| 2026-05-04 12:04 | 53.04540 | 8.71991 | 2389 ft | 183 kts | 273° |
| 2026-05-04 12:04 | 53.04715 | 8.69861 | 2961 ft | 194 kts | 289° |
| 2026-05-04 12:04 | 53.05510 | 8.67980 | 3486 ft | 211 kts | 324° |
| 2026-05-04 12:04 | 53.06909 | 8.67057 | 4036 ft | 231 kts | 351° |
| 2026-05-04 12:05 | 53.08563 | 8.66953 | 4663 ft | 247 kts | 358° |
| 2026-05-04 12:05 | 53.10313 | 8.66990 | 5277 ft | 263 kts | 358° |
| 2026-05-04 12:05 | 53.12175 | 8.66992 | 6049 ft | 272 kts | 355° |
| 2026-05-04 12:05 | 53.14041 | 8.66567 | 6869 ft | 274 kts | 338° |
| 2026-05-04 12:06 | 53.15660 | 8.65059 | 7748 ft | 271 kts | 319° |
| 2026-05-04 12:06 | 53.17099 | 8.63019 | 8613 ft | 274 kts | 315° |
| 2026-05-04 12:06 | 53.18530 | 8.60909 | 9476 ft | 279 kts | 316° |
| 2026-05-04 12:06 | 53.19979 | 8.58833 | 10283 ft | 283 kts | 316° |
| 2026-05-04 12:07 | 53.21512 | 8.56693 | 10935 ft | 294 kts | 317° |
| 2026-05-04 12:07 | 53.23079 | 8.54429 | 11540 ft | 305 kts | 313° |
| 2026-05-04 12:07 | 53.24421 | 8.51615 | 12101 ft | 312 kts | 296° |
| 2026-05-04 12:07 | 53.25146 | 8.48206 | 12680 ft | 319 kts | 278° |
| 2026-05-04 12:08 | 53.25248 | 8.44494 | 13159 ft | 331 kts | 265° |
| 2026-05-04 12:08 | 53.24819 | 8.40642 | 13834 ft | 338 kts | 256° |
| 2026-05-04 12:08 | 53.24139 | 8.36882 | 14575 ft | 342 kts | 252° |
| 2026-05-04 12:08 | 53.23388 | 8.33132 | 15401 ft | 344 kts | 251° |
| 2026-05-04 12:09 | 53.22626 | 8.29324 | 16185 ft | 347 kts | 251° |
| 2026-05-04 12:09 | 53.21873 | 8.25464 | 16970 ft | 349 kts | 251° |
| 2026-05-04 12:09 | 53.21127 | 8.21587 | 17676 ft | 353 kts | 251° |
| 2026-05-04 12:09 | 53.20377 | 8.17674 | 18470 ft | 354 kts | 251° |
| 2026-05-04 12:10 | 53.19624 | 8.13782 | 19121 ft | 358 kts | 251° |
| 2026-05-04 12:10 | 53.18864 | 8.09836 | 19898 ft | 359 kts | 251° |
| 2026-05-04 12:10 | 53.18116 | 8.05882 | 20588 ft | 361 kts | 251° |
| 2026-05-04 12:10 | 53.17366 | 8.01894 | 21245 ft | 364 kts | 251° |
| 2026-05-04 12:11 | 53.16605 | 7.97882 | 21928 ft | 366 kts | 251° |
| 2026-05-04 12:11 | 53.15831 | 7.93825 | 22593 ft | 368 kts | 251° |
| 2026-05-04 12:11 | 53.15051 | 7.89761 | 23237 ft | 369 kts | 251° |
| 2026-05-04 12:11 | 53.14267 | 7.85688 | 23830 ft | 372 kts | 251° |
| 2026-05-04 12:12 | 53.13492 | 7.81604 | 24404 ft | 374 kts | 251° |
| 2026-05-04 12:12 | 53.12714 | 7.77493 | 24979 ft | 377 kts | 251° |
| 2026-05-04 12:12 | 53.11921 | 7.73323 | 25524 ft | 380 kts | 251° |
| 2026-05-04 12:12 | 53.11117 | 7.69126 | 26112 ft | 381 kts | 251° |
| 2026-05-04 12:13 | 53.10301 | 7.64894 | 26592 ft | 385 kts | 251° |
| 2026-05-04 12:14 | 53.04449 | 7.34811 | 29955 ft | 400 kts | 250° |
| 2026-05-04 12:15 | 53.03599 | 7.30469 | 30413 ft | 401 kts | 250° |
| 2026-05-04 12:15 | 53.02732 | 7.26053 | 31008 ft | 399 kts | 249° |
| 2026-05-04 12:15 | 53.01862 | 7.21627 | 31585 ft | 397 kts | 250° |
| 2026-05-04 12:15 | 53.00992 | 7.17249 | 32015 ft | 398 kts | 249° |
| 2026-05-04 12:16 | 53.00117 | 7.12917 | 32417 ft | 399 kts | 249° |
| 2026-05-04 12:16 | 52.99232 | 7.08574 | 32815 ft | 399 kts | 250° |
| 2026-05-04 12:16 | 52.98338 | 7.04204 | 33228 ft | 399 kts | 250° |
| 2026-05-04 12:16 | 52.97442 | 6.99834 | 33598 ft | 400 kts | 250° |
| 2026-05-04 12:17 | 52.96553 | 6.95504 | 33982 ft | 400 kts | 250° |
| 2026-05-04 12:17 | 52.95660 | 6.91159 | 34345 ft | 400 kts | 250° |
| 2026-05-04 12:17 | 52.94750 | 6.86736 | 34672 ft | 401 kts | 250° |
| 2026-05-04 12:17 | 52.93850 | 6.82382 | 34989 ft | 401 kts | 250° |
| 2026-05-04 12:18 | 52.92941 | 6.77983 | 35253 ft | 402 kts | 250° |
| 2026-05-04 12:18 | 52.92038 | 6.73611 | 35476 ft | 403 kts | 250° |
| 2026-05-04 12:18 | 52.91136 | 6.69257 | 35699 ft | 403 kts | 250° |
| 2026-05-04 12:18 | 52.90216 | 6.64835 | 35862 ft | 405 kts | 250° |
| 2026-05-04 12:19 | 52.88336 | 6.55931 | 35962 ft | 408 kts | 250° |
| 2026-05-04 12:19 | 52.86454 | 6.47008 | 35961 ft | 405 kts | 251° |
| 2026-05-04 12:20 | 52.84596 | 6.38187 | 35969 ft | 406 kts | 250° |
| 2026-05-04 12:20 | 52.82717 | 6.29277 | 35962 ft | 406 kts | 250° |
| 2026-05-04 12:21 | 52.80849 | 6.20443 | 35973 ft | 407 kts | 250° |
| 2026-05-04 12:21 | 52.78949 | 6.11547 | 35964 ft | 406 kts | 249° |
| 2026-05-04 12:22 | 52.77097 | 6.02946 | 35975 ft | 406 kts | 249° |
| 2026-05-04 12:22 | 52.74961 | 5.94276 | 35984 ft | 407 kts | 245° |
| 2026-05-04 12:23 | 52.72706 | 5.86029 | 35990 ft | 407 kts | 245° |
| 2026-05-04 12:23 | 52.70344 | 5.77453 | 35984 ft | 409 kts | 245° |
| 2026-05-04 12:24 | 52.68030 | 5.68954 | 35985 ft | 409 kts | 245° |
| 2026-05-04 12:24 | 52.65715 | 5.60404 | 35983 ft | 409 kts | 245° |
| 2026-05-04 12:25 | 52.63414 | 5.51914 | 35965 ft | 408 kts | 245° |
| 2026-05-04 12:25 | 52.61084 | 5.43349 | 35963 ft | 410 kts | 245° |
| 2026-05-04 12:26 | 52.58784 | 5.34911 | 35974 ft | 409 kts | 244° |
| 2026-05-04 12:26 | 52.56428 | 5.26301 | 35962 ft | 409 kts | 245° |
| 2026-05-04 12:27 | 52.54068 | 5.17701 | 35962 ft | 412 kts | 244° |
| 2026-05-04 12:27 | 52.51725 | 5.09187 | 35976 ft | 410 kts | 244° |
| 2026-05-04 12:28 | 52.49368 | 5.00658 | 35962 ft | 410 kts | 244° |
| 2026-05-04 12:28 | 52.47003 | 4.92145 | 35986 ft | 411 kts | 244° |
| 2026-05-04 12:29 | 52.44629 | 4.83629 | 35962 ft | 411 kts | 244° |
| 2026-05-04 12:29 | 52.42238 | 4.75086 | 35991 ft | 412 kts | 244° |
| 2026-05-04 12:30 | 52.39865 | 4.66623 | 35977 ft | 412 kts | 244° |
| 2026-05-04 12:30 | 52.37514 | 4.58242 | 35974 ft | 413 kts | 244° |
| 2026-05-04 12:31 | 52.35109 | 4.49711 | 35981 ft | 413 kts | 244° |
| 2026-05-04 12:31 | 52.32674 | 4.41149 | 35961 ft | 412 kts | 244° |
| 2026-05-04 12:32 | 52.29029 | 4.28389 | 35978 ft | 414 kts | 243° |
| 2026-05-04 12:33 | 52.26601 | 4.19857 | 35973 ft | 413 kts | 243° |
| 2026-05-04 12:33 | 52.24177 | 4.11385 | 35984 ft | 413 kts | 244° |
| 2026-05-04 12:34 | 52.21724 | 4.02844 | 35976 ft | 415 kts | 244° |
| 2026-05-04 12:34 | 52.19278 | 3.94364 | 35975 ft | 415 kts | 244° |
| 2026-05-04 12:35 | 52.16804 | 3.85839 | 35974 ft | 415 kts | 244° |
| 2026-05-04 12:35 | 52.14324 | 3.77341 | 35971 ft | 417 kts | 244° |
| 2026-05-04 12:36 | 52.11838 | 3.68851 | 35975 ft | 416 kts | 243° |
| 2026-05-04 12:36 | 52.09354 | 3.60395 | 35974 ft | 416 kts | 243° |
| 2026-05-04 12:37 | 52.06862 | 3.51933 | 35990 ft | 417 kts | 243° |
| 2026-05-04 12:37 | 52.04351 | 3.43439 | 35984 ft | 417 kts | 243° |
| 2026-05-04 12:38 | 52.01849 | 3.35034 | 35757 ft | 409 kts | 243° |
| 2026-05-04 12:38 | 52.00608 | 3.30892 | 35387 ft | 406 kts | 242° |
| 2026-05-04 12:38 | 51.99369 | 3.26759 | 34843 ft | 407 kts | 242° |
| 2026-05-04 12:38 | 51.98174 | 3.22612 | 34066 ft | 411 kts | 245° |
| 2026-05-04 12:39 | 51.97187 | 3.18213 | 33266 ft | 415 kts | 250° |
| 2026-05-04 12:39 | 51.96506 | 3.13921 | 32521 ft | 419 kts | 255° |
| 2026-05-04 12:39 | 51.95992 | 3.09250 | 31732 ft | 422 kts | 258° |
| 2026-05-04 12:39 | 51.95605 | 3.04560 | 30930 ft | 424 kts | 259° |
| 2026-05-04 12:40 | 51.95281 | 2.99810 | 30030 ft | 427 kts | 261° |
| 2026-05-04 12:40 | 51.94986 | 2.95078 | 29232 ft | 426 kts | 261° |
| 2026-05-04 12:40 | 51.94700 | 2.90319 | 28741 ft | 418 kts | 261° |
| 2026-05-04 12:40 | 51.94420 | 2.85709 | 28263 ft | 411 kts | 261° |
| 2026-05-04 12:41 | 51.94138 | 2.81120 | 27741 ft | 405 kts | 261° |
| 2026-05-04 12:41 | 51.93851 | 2.76569 | 27163 ft | 408 kts | 261° |
| 2026-05-04 12:41 | 51.93554 | 2.72002 | 26564 ft | 410 kts | 261° |
| 2026-05-04 12:41 | 51.93251 | 2.67428 | 25959 ft | 406 kts | 261° |
| 2026-05-04 12:42 | 51.92954 | 2.62988 | 25372 ft | 401 kts | 261° |
| 2026-05-04 12:42 | 51.92650 | 2.58499 | 24780 ft | 397 kts | 261° |
| 2026-05-04 12:42 | 51.92350 | 2.54092 | 24193 ft | 392 kts | 262° |
| 2026-05-04 12:42 | 51.92054 | 2.49765 | 23662 ft | 387 kts | 262° |
| 2026-05-04 12:43 | 51.91755 | 2.45450 | 23155 ft | 385 kts | 262° |
| 2026-05-04 12:43 | 51.91457 | 2.41183 | 22715 ft | 385 kts | 262° |
| 2026-05-04 12:43 | 51.91154 | 2.36864 | 22273 ft | 385 kts | 262° |
| 2026-05-04 12:43 | 51.90861 | 2.32686 | 21993 ft | 381 kts | 262° |
| 2026-05-04 12:44 | 51.90628 | 2.28403 | 21987 ft | 383 kts | 264° |
| 2026-05-04 12:44 | 51.90499 | 2.24124 | 21785 ft | 387 kts | 266° |
| 2026-05-04 12:44 | 51.90418 | 2.19782 | 21509 ft | 383 kts | 266° |
| 2026-05-04 12:44 | 51.90348 | 2.15418 | 21041 ft | 384 kts | 267° |
| 2026-05-04 12:45 | 51.90277 | 2.11124 | 20545 ft | 382 kts | 267° |
| 2026-05-04 12:45 | 51.90208 | 2.07331 | 20090 ft | 380 kts | 266° |
| 2026-05-04 12:45 | 51.90122 | 2.03069 | 19577 ft | 379 kts | 266° |
| 2026-05-04 12:45 | 51.90026 | 1.98853 | 19069 ft | 379 kts | 266° |
| 2026-05-04 12:46 | 51.89941 | 1.94559 | 18553 ft | 378 kts | 269° |
| 2026-05-04 12:46 | 51.90090 | 1.90289 | 18042 ft | 377 kts | 277° |
| 2026-05-04 12:46 | 51.90712 | 1.86223 | 17630 ft | 373 kts | 289° |
| 2026-05-04 12:46 | 51.91623 | 1.82783 | 17408 ft | 372 kts | 294° |
| 2026-05-04 12:47 | 51.92786 | 1.79043 | 17117 ft | 375 kts | 296° |
| 2026-05-04 12:47 | 51.94035 | 1.75268 | 16669 ft | 373 kts | 297° |
| 2026-05-04 12:47 | 51.95277 | 1.71599 | 16212 ft | 368 kts | 297° |
| 2026-05-04 12:47 | 51.96401 | 1.68280 | 15796 ft | 366 kts | 297° |
| 2026-05-04 12:48 | 51.97619 | 1.64653 | 15337 ft | 363 kts | 297° |
| 2026-05-04 12:48 | 51.98811 | 1.61069 | 14905 ft | 359 kts | 297° |
| 2026-05-04 12:48 | 51.99984 | 1.57516 | 14503 ft | 355 kts | 297° |
| 2026-05-04 12:48 | 52.01151 | 1.53958 | 14086 ft | 355 kts | 297° |
| 2026-05-04 12:49 | 52.02240 | 1.50628 | 13705 ft | 353 kts | 297° |
| 2026-05-04 12:49 | 52.03399 | 1.47072 | 13306 ft | 352 kts | 297° |
| 2026-05-04 12:49 | 52.04536 | 1.43581 | 12918 ft | 350 kts | 297° |
| 2026-05-04 12:49 | 52.05660 | 1.40125 | 12515 ft | 347 kts | 297° |
| 2026-05-04 12:50 | 52.06785 | 1.36664 | 12111 ft | 342 kts | 297° |
| 2026-05-04 12:50 | 52.07872 | 1.33314 | 11982 ft | 326 kts | 296° |
| 2026-05-04 12:50 | 52.08907 | 1.30124 | 11989 ft | 309 kts | 296° |
| 2026-05-04 12:50 | 52.09908 | 1.27031 | 11995 ft | 308 kts | 296° |
| 2026-05-04 12:51 | 52.10879 | 1.23936 | 11990 ft | 308 kts | 293° |
| 2026-05-04 12:51 | 52.11536 | 1.20735 | 11981 ft | 294 kts | 277° |
| 2026-05-04 12:51 | 52.11453 | 1.17449 | 11801 ft | 290 kts | 257° |
| 2026-05-04 12:51 | 52.10904 | 1.14269 | 11561 ft | 288 kts | 252° |
| 2026-05-04 12:52 | 52.10309 | 1.11211 | 11478 ft | 284 kts | 252° |
| 2026-05-04 12:52 | 52.09963 | 1.09383 | 11478 ft | 286 kts | 253° |
| 2026-05-04 12:52 | 52.09404 | 1.06271 | 11221 ft | 288 kts | 254° |
| 2026-05-04 12:52 | 52.08872 | 1.03161 | 10948 ft | 284 kts | 255° |
| 2026-05-04 12:53 | 52.08351 | 1.00039 | 10693 ft | 283 kts | 255° |
| 2026-05-04 12:53 | 52.07837 | 0.96945 | 10443 ft | 282 kts | 255° |
| 2026-05-04 12:53 | 52.07321 | 0.93831 | 10192 ft | 281 kts | 255° |
| 2026-05-04 12:53 | 52.06812 | 0.90732 | 9936 ft | 279 kts | 255° |
| 2026-05-04 12:54 | 52.06316 | 0.87711 | 9684 ft | 273 kts | 255° |
| 2026-05-04 12:54 | 52.06063 | 0.86184 | 9559 ft | 270 kts | 255° |
| 2026-05-04 12:54 | 52.05592 | 0.83347 | 9321 ft | 266 kts | 255° |
| 2026-05-04 12:54 | 52.05106 | 0.80451 | 9080 ft | 266 kts | 255° |
| 2026-05-04 12:55 | 52.04620 | 0.77564 | 8828 ft | 265 kts | 255° |
| 2026-05-04 12:55 | 52.04254 | 0.75398 | 8639 ft | 265 kts | 255° |
| 2026-05-04 12:55 | 52.03765 | 0.72513 | 8389 ft | 265 kts | 255° |
| 2026-05-04 12:55 | 52.03269 | 0.69650 | 8135 ft | 263 kts | 253° |
| 2026-05-04 12:56 | 52.02779 | 0.66763 | 7999 ft | 261 kts | 261° |
| 2026-05-04 12:56 | 52.02651 | 0.63851 | 7992 ft | 261 kts | 270° |
| 2026-05-04 12:56 | 52.02674 | 0.60957 | 7972 ft | 248 kts | 271° |
| 2026-05-04 12:56 | 52.02723 | 0.58185 | 7775 ft | 246 kts | 271° |
| 2026-05-04 12:57 | 52.02773 | 0.55458 | 7534 ft | 243 kts | 271° |
| 2026-05-04 12:57 | 52.02822 | 0.52728 | 7287 ft | 240 kts | 271° |
| 2026-05-04 12:57 | 52.02870 | 0.50030 | 7035 ft | 240 kts | 271° |